createdAt,value
2019-04-22T00:01:36.932Z,12.90
2019-04-22T00:04:13.592Z,13.00
2019-04-22T00:07:03.225Z,13.00
2019-04-22T00:09:39.598Z,12.80
2019-04-22T00:12:13.778Z,12.90
2019-04-22T00:14:35.082Z,12.80
2019-04-22T00:17:16.890Z,12.60
2019-04-22T00:19:43.765Z,12.70
2019-04-22T00:22:15.320Z,12.70
2019-04-22T00:24:44.539Z,12.70
2019-04-22T00:27:24.109Z,12.60
2019-04-22T00:32:19.776Z,12.70
2019-04-22T00:34:53.530Z,12.60
2019-04-22T00:37:25.216Z,12.50
2019-04-22T00:39:57.390Z,12.50
2019-04-22T00:42:29.543Z,12.60
2019-04-22T00:45:03.239Z,12.60
2019-04-22T00:55:10.087Z,12.20
2019-04-22T00:57:54.250Z,12.30
2019-04-22T01:00:24.709Z,12.10
2019-04-22T01:02:57.368Z,11.90
2019-04-22T01:05:32.465Z,11.90
2019-04-22T01:08:01.191Z,11.90
2019-04-22T01:10:26.318Z,12.10
2019-04-22T01:12:57.334Z,12.00
2019-04-22T01:15:30.338Z,12.00
2019-04-22T01:17:57.315Z,11.90
2019-04-22T01:20:54.529Z,11.90
2019-04-22T01:23:01.450Z,11.70
2019-04-22T01:25:30.961Z,11.70
2019-04-22T01:27:54.432Z,11.80
2019-04-22T01:30:25.888Z,11.80
2019-04-22T01:32:45.706Z,11.70
2019-04-22T01:35:26.399Z,11.70
2019-04-22T01:38:03.252Z,11.60
2019-04-22T01:40:45.481Z,11.60
2019-04-22T01:43:18.619Z,11.60
2019-04-22T01:45:47.976Z,11.60
2019-04-22T01:48:11.457Z,11.50
2019-04-22T01:50:43.891Z,11.50
2019-04-22T01:53:19.631Z,11.50
2019-04-22T01:55:52.034Z,11.40
2019-04-22T01:58:10.948Z,11.40
2019-04-22T02:00:58.244Z,11.30
2019-04-22T02:03:20.652Z,11.30
2019-04-22T02:05:50.578Z,11.30
2019-04-22T02:08:33.368Z,11.40
2019-04-22T02:10:57.187Z,11.30
2019-04-22T02:13:23.053Z,11.20
2019-04-22T02:16:00.259Z,11.30
2019-04-22T02:18:36.240Z,11.20
2019-04-22T02:20:56.781Z,11.20
2019-04-22T02:23:47.080Z,11.00
2019-04-22T02:26:15.821Z,11.10
2019-04-22T02:34:01.842Z,11.00
2019-04-22T02:36:30.373Z,11.00
2019-04-22T02:51:26.261Z,10.80
2019-04-22T02:56:27.174Z,10.70
2019-04-22T03:08:53.776Z,10.90
2019-04-22T03:11:25.614Z,10.90
2019-04-22T03:16:33.219Z,11.00
2019-04-22T03:21:24.053Z,11.00
2019-04-22T03:26:34.111Z,10.80
2019-04-22T03:42:06.774Z,10.70
2019-04-22T03:49:51.171Z,10.50
2019-04-22T03:52:13.253Z,10.50
2019-04-22T03:54:53.774Z,10.60
2019-04-22T04:02:16.209Z,10.60
2019-04-22T04:09:38.584Z,10.40
2019-04-22T04:12:12.304Z,10.40
2019-04-22T04:14:57.597Z,10.40
2019-04-22T04:17:34.794Z,10.20
2019-04-22T04:20:03.861Z,10.20
2019-04-22T04:22:33.912Z,10.20
2019-04-22T04:27:37.028Z,10.10
2019-04-22T04:32:38.718Z,9.90
2019-04-22T04:42:33.257Z,9.90
2019-04-22T04:45:12.460Z,10.00
2019-04-22T04:50:05.742Z,9.80
2019-04-22T04:52:39.640Z,9.80
2019-04-22T04:57:37.887Z,9.70
2019-04-22T05:02:37.371Z,9.80
2019-04-22T05:05:12.820Z,9.70
2019-04-22T05:10:09.668Z,9.90
2019-04-22T05:15:17.654Z,10.10
2019-04-22T05:20:13.345Z,10.30
2019-04-22T05:32:44.702Z,11.00
2019-04-22T05:37:45.589Z,10.80
2019-04-22T05:40:16.287Z,10.70
2019-04-22T05:42:35.624Z,10.70
2019-04-22T05:47:50.707Z,10.80
2019-04-22T05:50:16.953Z,10.90
2019-04-22T05:52:52.658Z,10.90
2019-04-22T05:55:22.688Z,11.00
2019-04-22T05:57:58.449Z,11.00
2019-04-22T06:00:36.885Z,10.90
2019-04-22T06:02:56.722Z,10.90
2019-04-22T06:05:32.031Z,11.00
2019-04-22T06:08:02.111Z,11.10
2019-04-22T06:13:01.021Z,11.20
2019-04-22T06:15:36.341Z,11.30
2019-04-22T06:18:17.613Z,11.30
2019-04-22T06:20:53.980Z,11.40
2019-04-22T06:23:19.278Z,11.50
2019-04-22T06:28:29.019Z,11.60
2019-04-22T06:33:21.047Z,11.80
2019-04-22T06:36:00.484Z,11.80
2019-04-22T06:40:56.766Z,12.10
2019-04-22T06:43:23.617Z,12.10
2019-04-22T06:45:57.713Z,12.20
2019-04-22T06:50:55.380Z,12.50
2019-04-22T06:53:29.760Z,12.60
2019-04-22T06:56:03.221Z,12.70
2019-04-22T06:58:28.923Z,12.80
2019-04-22T07:01:04.329Z,13.00
2019-04-22T07:03:41.724Z,13.10
2019-04-22T07:06:07.796Z,13.20
2019-04-22T07:11:06.096Z,13.60
2019-04-22T07:13:43.969Z,13.90
2019-04-22T07:16:11.151Z,14.20
2019-04-22T07:18:44.165Z,14.70
2019-04-22T07:21:16.243Z,15.30
2019-04-22T07:23:55.635Z,15.80
2019-04-22T07:26:16.222Z,16.50
2019-04-22T07:28:43.826Z,17.00
2019-04-22T07:31:15.756Z,17.50
2019-04-22T07:34:08.426Z,18.00
2019-04-22T07:36:42.118Z,18.30
2019-04-22T07:38:45.483Z,18.80
2019-04-22T07:41:23.080Z,19.40
2019-04-22T07:44:07.430Z,19.90
2019-04-22T07:46:28.676Z,20.50
2019-04-22T07:51:28.264Z,21.00
2019-04-22T07:53:55.832Z,21.20
2019-04-22T07:56:24.236Z,21.00
2019-04-22T07:59:00.655Z,21.20
2019-04-22T08:01:26.887Z,21.40
2019-04-22T08:04:15.021Z,21.50
2019-04-22T08:06:29.569Z,21.80
2019-04-22T08:09:11.351Z,21.80
2019-04-22T08:11:43.700Z,22.00
2019-04-22T08:14:07.204Z,22.20
2019-04-22T08:16:38.585Z,22.30
2019-04-22T08:19:10.560Z,21.90
2019-04-22T08:21:39.944Z,21.80
2019-04-22T08:24:12.335Z,21.70
2019-04-22T08:26:41.136Z,21.60
2019-04-22T08:29:14.467Z,21.60
2019-04-22T08:31:40.364Z,21.50
2019-04-22T08:34:14.167Z,21.40
2019-04-22T08:36:56.856Z,21.60
2019-04-22T08:41:41.521Z,21.50
2019-04-22T08:44:26.151Z,21.60
2019-04-22T08:46:56.116Z,21.50
2019-04-22T08:49:18.046Z,21.60
2019-04-22T08:51:54.017Z,22.00
2019-04-22T08:54:19.987Z,22.00
2019-04-22T08:56:58.293Z,21.80
2019-04-22T08:59:14.952Z,21.80
2019-04-22T09:01:49.195Z,22.20
2019-04-22T09:04:20.019Z,22.20
2019-04-22T09:09:26.431Z,22.10
2019-04-22T09:12:02.816Z,22.00
2019-04-22T09:14:31.926Z,22.20
2019-04-22T09:17:05.722Z,22.00
2019-04-22T09:19:30.054Z,22.00
2019-04-22T09:22:05.007Z,22.10
2019-04-22T09:24:36.253Z,22.10
2019-04-22T09:27:13.121Z,22.20
2019-04-22T09:29:39.816Z,22.30
2019-04-22T09:32:11.797Z,22.30
2019-04-22T09:34:43.283Z,22.50
2019-04-22T09:37:34.542Z,22.60
2019-04-22T09:39:41.115Z,22.80
2019-04-22T09:42:09.110Z,22.90
2019-04-22T09:44:47.489Z,23.20
2019-04-22T09:47:12.888Z,23.00
2019-04-22T09:49:49.692Z,23.10
2019-04-22T09:52:16.142Z,23.00
2019-04-22T09:54:52.816Z,23.50
2019-04-22T09:57:20.159Z,23.50
2019-04-22T09:59:54.165Z,23.60
2019-04-22T10:04:55.214Z,23.70
2019-04-22T10:07:21.002Z,23.90
2019-04-22T10:09:59.687Z,24.40
2019-04-22T10:12:26.466Z,24.40
2019-04-22T10:14:53.947Z,24.90
2019-04-22T10:17:25.589Z,24.40
2019-04-22T10:19:53.533Z,24.50
2019-04-22T10:25:01.899Z,24.70
2019-04-22T10:27:26.329Z,24.70
2019-04-22T10:32:31.948Z,24.70
2019-04-22T10:34:57.242Z,24.80
2019-04-22T10:37:23.403Z,24.90
2019-04-22T10:39:56.249Z,25.20
2019-04-22T10:42:23.018Z,25.40
2019-04-22T10:44:53.807Z,25.30
2019-04-22T10:47:24.067Z,25.40
2019-04-22T10:49:54.460Z,25.60
2019-04-22T10:52:23.753Z,25.20
2019-04-22T10:54:53.599Z,25.20
2019-04-22T10:57:22.904Z,25.40
2019-04-22T10:59:52.413Z,25.50
2019-04-22T11:02:21.736Z,25.10
2019-04-22T11:04:52.271Z,25.40
2019-04-22T11:07:32.558Z,25.30
2019-04-22T11:10:01.166Z,25.30
2019-04-22T11:12:28.024Z,25.10
2019-04-22T11:14:55.846Z,25.50
2019-04-22T11:17:26.022Z,25.60
2019-04-22T11:19:55.419Z,25.60
2019-04-22T11:22:31.260Z,25.90
2019-04-22T11:24:58.963Z,25.60
2019-04-22T11:27:26.570Z,25.70
2019-04-22T11:29:57.346Z,25.60
2019-04-22T11:32:26.724Z,26.00
2019-04-22T11:34:56.163Z,26.10
2019-04-22T11:37:25.431Z,25.80
2019-04-22T11:40:09.180Z,25.80
2019-04-22T11:42:25.976Z,25.90
2019-04-22T11:44:55.398Z,25.90
2019-04-22T11:47:25.612Z,26.00
2019-04-22T11:49:55.211Z,25.70
2019-04-22T11:52:24.736Z,25.10
2019-04-22T11:54:54.923Z,24.60
2019-04-22T11:57:25.358Z,24.50
2019-04-22T11:59:54.825Z,24.40
2019-04-22T12:02:27.187Z,24.30
2019-04-22T12:04:58.132Z,24.20
2019-04-22T12:07:30.012Z,24.20
2019-04-22T12:09:59.750Z,24.20
2019-04-22T12:12:29.937Z,24.10
2019-04-22T12:15:00.760Z,24.10
2019-04-22T12:17:30.116Z,24.10
2019-04-22T12:20:00.217Z,24.10
2019-04-22T12:22:31.278Z,23.90
2019-04-22T12:25:00.865Z,23.90
2019-04-22T12:27:30.543Z,23.90
2019-04-22T12:30:00.925Z,23.90
2019-04-22T12:32:31.532Z,24.00
2019-04-22T12:35:01.826Z,24.00
2019-04-22T12:37:40.703Z,24.00
2019-04-22T12:40:04.176Z,24.10
2019-04-22T12:42:35.317Z,24.10
2019-04-22T12:45:06.502Z,24.10
2019-04-22T12:47:35.892Z,24.20
2019-04-22T12:50:12.422Z,24.20
2019-04-22T12:52:43.424Z,24.20
2019-04-22T12:55:09.930Z,24.20
2019-04-22T12:57:40.987Z,24.30
2019-04-22T13:00:11.627Z,24.20
2019-04-22T13:02:41.108Z,24.30
2019-04-22T13:05:12.316Z,24.30
2019-04-22T13:07:41.824Z,24.20
2019-04-22T13:10:13.977Z,24.30
2019-04-22T13:12:44.496Z,24.20
2019-04-22T13:15:15.899Z,24.20
2019-04-22T13:17:46.251Z,24.10
2019-04-22T13:20:18.264Z,23.90
2019-04-22T13:22:46.784Z,24.00
2019-04-22T13:25:17.708Z,24.10
2019-04-22T13:27:47.012Z,24.30
2019-04-22T13:30:18.632Z,24.30
2019-04-22T13:32:49.137Z,24.20
2019-04-22T13:35:20.226Z,24.30
2019-04-22T13:37:50.979Z,24.40
2019-04-22T13:40:21.066Z,24.50
2019-04-22T13:42:51.180Z,24.60
2019-04-22T13:45:21.655Z,24.70
2019-04-22T13:48:11.141Z,24.90
2019-04-22T13:53:37.687Z,25.00
2019-04-22T13:55:53.968Z,24.90
2019-04-22T13:58:08.470Z,24.90
2019-04-22T14:00:31.048Z,24.80
2019-04-22T14:03:18.432Z,24.90
2019-04-22T14:05:48.830Z,25.00
2019-04-22T14:08:19.606Z,25.10
2019-04-22T14:10:50.203Z,25.10
2019-04-22T14:13:19.825Z,25.00
2019-04-22T14:15:50.794Z,24.90
2019-04-22T14:18:21.091Z,24.90
2019-04-22T14:20:51.161Z,24.80
2019-04-22T14:23:20.590Z,24.70
2019-04-22T14:25:50.805Z,24.70
2019-04-22T14:28:22.976Z,24.60
2019-04-22T14:30:52.564Z,24.50
2019-04-22T14:33:22.383Z,24.40
2019-04-22T14:35:52.044Z,24.40
2019-04-22T14:38:21.856Z,24.30
2019-04-22T14:40:51.981Z,24.20
2019-04-22T14:43:52.717Z,24.20
2019-04-22T14:46:20.490Z,24.30
2019-04-22T14:48:49.867Z,24.40
2019-04-22T14:51:11.418Z,24.30
2019-04-22T14:53:46.004Z,24.30
2019-04-22T14:55:55.970Z,24.50
2019-04-22T14:58:25.198Z,24.40
2019-04-22T15:00:55.243Z,24.40
2019-04-22T15:03:25.857Z,24.40
2019-04-22T15:05:55.219Z,24.50
2019-04-22T15:08:24.791Z,24.60
2019-04-22T15:10:54.115Z,24.60
2019-04-22T15:13:23.447Z,24.70
2019-04-22T15:16:15.953Z,24.60
2019-04-22T15:19:02.189Z,24.60
2019-04-22T15:21:32.461Z,24.60
2019-04-22T15:24:20.985Z,24.50
2019-04-22T15:26:50.723Z,24.50
2019-04-22T15:29:21.126Z,24.50
2019-04-22T15:31:51.468Z,24.40
2019-04-22T15:34:20.973Z,24.40
2019-04-22T15:36:50.594Z,24.40
2019-04-22T15:39:20.789Z,24.30
2019-04-22T15:41:57.926Z,24.30
2019-04-22T15:44:21.970Z,24.40
2019-04-22T15:46:53.052Z,24.40
2019-04-22T15:49:22.505Z,24.30
2019-04-22T15:51:53.230Z,24.30
2019-04-22T15:54:23.590Z,24.30
2019-04-22T15:56:52.838Z,24.30
2019-04-22T15:59:43.464Z,24.30
2019-04-22T16:01:56.633Z,24.30
2019-04-22T16:04:24.087Z,24.30
2019-04-22T16:06:54.746Z,24.30
2019-04-22T16:09:24.989Z,24.20
2019-04-22T16:11:54.422Z,24.10
2019-04-22T16:14:31.177Z,24.10
2019-04-22T16:16:54.703Z,24.10
2019-04-22T16:19:25.287Z,24.20
2019-04-22T16:22:01.421Z,24.10
2019-04-22T16:24:38.188Z,24.10
2019-04-22T16:27:16.502Z,24.00
2019-04-22T16:29:45.740Z,24.00
2019-04-22T16:32:15.659Z,24.00
2019-04-22T16:34:45.818Z,23.90
2019-04-22T16:37:15.089Z,24.00
2019-04-22T16:39:46.730Z,24.00
2019-04-22T16:42:27.892Z,24.00
2019-04-22T16:44:47.549Z,24.00
2019-04-22T16:47:17.503Z,23.90
2019-04-22T16:49:47.945Z,23.80
2019-04-22T16:52:18.268Z,23.90
2019-04-22T16:54:47.637Z,23.80
2019-04-22T16:57:17.855Z,23.70
2019-04-22T16:59:48.745Z,23.80
2019-04-22T17:02:37.098Z,23.70
2019-04-22T17:05:43.357Z,23.70
2019-04-22T17:08:14.190Z,23.60
2019-04-22T17:10:43.897Z,23.70
2019-04-22T17:13:19.199Z,23.60
2019-04-22T17:15:45.119Z,23.60
2019-04-22T17:18:15.111Z,23.50
2019-04-22T17:20:44.746Z,23.60
2019-04-22T17:23:15.464Z,23.50
2019-04-22T17:25:45.099Z,23.30
2019-04-22T17:28:15.422Z,23.20
2019-04-22T17:30:45.717Z,23.20
2019-04-22T17:33:15.030Z,23.10
2019-04-22T17:35:46.401Z,23.00
2019-04-22T17:38:26.293Z,22.90
2019-04-22T17:41:01.105Z,22.90
2019-04-22T17:43:50.646Z,22.90
2019-04-22T17:46:13.672Z,22.80
2019-04-22T17:49:10.492Z,22.80
2019-04-22T17:51:49.978Z,22.80
2019-04-22T17:54:15.189Z,22.90
2019-04-22T17:56:44.793Z,22.80
2019-04-22T17:59:19.106Z,22.70
2019-04-22T18:01:43.780Z,22.60
2019-04-22T18:04:01.056Z,22.70
2019-04-22T18:06:58.228Z,22.50
2019-04-22T18:09:28.406Z,22.40
2019-04-22T18:11:54.282Z,22.30
2019-04-22T18:14:35.052Z,22.40
2019-04-22T18:16:52.044Z,22.20
2019-04-22T18:19:19.606Z,22.10
2019-04-22T18:21:48.694Z,22.00
2019-04-22T18:24:11.744Z,21.90
2019-04-22T18:27:04.812Z,21.90
2019-04-22T18:29:29.234Z,21.80
2019-04-22T18:31:47.788Z,21.80
2019-04-22T18:34:23.623Z,21.70
2019-04-22T18:36:55.261Z,21.60
2019-04-22T18:39:37.026Z,21.60
2019-04-22T18:41:59.289Z,21.60
2019-04-22T18:44:32.631Z,21.50
2019-04-22T18:47:03.727Z,21.50
2019-04-22T18:49:40.592Z,21.40
2019-04-22T18:52:26.609Z,21.30
2019-04-22T18:55:19.307Z,21.20
2019-04-22T18:58:02.734Z,21.00
2019-04-22T19:00:23.333Z,20.90
2019-04-22T19:02:58.958Z,20.70
2019-04-22T19:05:40.219Z,20.60
2019-04-22T19:16:19.272Z,20.50
2019-04-22T19:18:29.786Z,20.50
2019-04-22T19:20:59.892Z,20.50
2019-04-22T19:23:25.118Z,20.40
2019-04-22T19:25:55.984Z,20.30
2019-04-22T19:28:40.511Z,20.10
2019-04-22T19:31:05.917Z,20.10
2019-04-22T19:33:28.985Z,19.90
2019-04-22T19:36:01.496Z,19.80
2019-04-22T19:38:16.792Z,19.70
2019-04-22T19:43:33.133Z,19.40
2019-04-22T19:46:04.057Z,19.40
2019-04-22T19:48:43.956Z,19.40
2019-04-22T19:51:11.147Z,19.20
2019-04-22T19:53:35.303Z,19.20
2019-04-22T19:56:01.456Z,19.10
2019-04-22T19:58:39.335Z,19.00
2019-04-22T20:01:28.998Z,19.00
2019-04-22T20:04:41.576Z,18.80
2019-04-22T20:06:53.932Z,18.60
2019-04-22T20:09:29.929Z,18.70
2019-04-22T20:11:56.467Z,18.60
2019-04-22T20:14:27.007Z,18.60
2019-04-22T20:16:54.777Z,18.50
2019-04-22T20:19:41.515Z,18.40
2019-04-22T20:22:04.448Z,18.40
2019-04-22T20:24:20.703Z,18.40
2019-04-22T20:27:05.202Z,18.30
2019-04-22T20:29:43.399Z,18.30
2019-04-22T20:32:05.349Z,18.30
2019-04-22T20:34:51.168Z,18.30
2019-04-22T20:37:29.696Z,18.20
2019-04-22T20:39:44.121Z,18.20
2019-04-22T20:42:26.671Z,18.10
2019-04-22T20:44:47.310Z,18.10
2019-04-22T20:47:10.639Z,18.00
2019-04-22T20:49:44.973Z,17.90
2019-04-22T20:52:19.283Z,17.90
2019-04-22T20:54:44.867Z,17.90
2019-04-22T20:57:17.157Z,17.80
2019-04-22T20:59:48.364Z,17.70
2019-04-22T21:02:15.183Z,17.70
2019-04-22T21:04:41.455Z,17.60
2019-04-22T21:07:19.026Z,17.60
2019-04-22T21:09:48.993Z,17.50
2019-04-22T21:12:17.707Z,17.60
2019-04-22T21:15:03.671Z,17.60
2019-04-22T21:17:24.906Z,17.50
2019-04-22T21:20:00.388Z,17.50
2019-04-22T21:22:29.089Z,17.60
2019-04-22T21:24:56.382Z,17.50
2019-04-22T21:27:32.486Z,17.50
2019-04-22T21:29:52.042Z,17.40
2019-04-22T21:32:31.242Z,17.40
2019-04-22T21:35:21.572Z,17.40
2019-04-22T21:37:39.412Z,17.40
2019-04-22T21:39:59.406Z,17.30
2019-04-22T21:42:34.897Z,17.30
2019-04-22T21:44:55.721Z,17.20
2019-04-22T21:47:41.893Z,17.20
2019-04-22T21:50:21.425Z,17.20
2019-04-22T21:52:42.546Z,17.20
2019-04-22T21:55:10.332Z,17.20
2019-04-22T21:58:07.610Z,17.20
2019-04-22T22:00:56.024Z,17.00
2019-04-22T22:03:19.477Z,17.00
2019-04-22T22:05:34.283Z,17.00
2019-04-22T22:08:23.549Z,16.90
2019-04-22T22:10:46.502Z,17.00
2019-04-22T22:13:19.437Z,16.90
2019-04-22T22:15:47.502Z,17.10
2019-04-22T22:18:12.346Z,17.20
2019-04-22T22:21:12.639Z,17.40
2019-04-22T22:23:26.877Z,17.70
2019-04-22T22:25:49.227Z,17.90
2019-04-22T22:28:41.735Z,18.10
2019-04-22T22:31:18.664Z,18.20
2019-04-22T22:33:24.168Z,18.20
2019-04-22T22:35:51.693Z,18.20
2019-04-22T22:38:24.330Z,18.20
2019-04-22T22:40:41.592Z,18.30
2019-04-22T22:43:19.089Z,18.30
2019-04-22T22:45:48.292Z,18.30
2019-04-22T22:48:37.009Z,18.30
2019-04-22T22:50:58.494Z,18.40
2019-04-22T22:56:07.841Z,18.30
2019-04-22T22:58:34.753Z,18.30
2019-04-22T23:01:06.290Z,18.40
2019-04-22T23:06:12.817Z,18.30
2019-04-22T23:08:38.266Z,18.40
2019-04-22T23:11:34.959Z,18.40
2019-04-22T23:13:42.448Z,18.30
2019-04-22T23:16:00.951Z,18.20
2019-04-22T23:18:21.822Z,18.20
2019-04-22T23:20:53.618Z,18.20
2019-04-22T23:23:39.552Z,18.20
2019-04-22T23:26:33.752Z,18.00
2019-04-22T23:29:03.922Z,18.00
2019-04-22T23:31:39.773Z,17.90
2019-04-22T23:34:22.020Z,17.90
2019-04-22T23:37:06.861Z,18.00
2019-04-22T23:39:48.535Z,17.90
2019-04-22T23:42:19.414Z,18.00
2019-04-22T23:44:46.937Z,18.00
2019-04-22T23:47:10.945Z,17.80
2019-04-22T23:49:42.627Z,17.90
2019-04-22T23:52:22.710Z,17.70
2019-04-22T23:54:56.489Z,17.70
2019-04-22T23:57:31.349Z,17.70
